Time;durP1;ratioP1;P1;durP2;ratioP2;P2;SDS_P1;SDS_P2;PMS_P1;PMS_P2;Temp;Humidity;BMP_temperature;BMP_pressure;BME280_temperature;BME280_humidity;BME280_pressure;Samples;Min_cycle;Max_cycle;Signal;HPM_P1;HPM_P2
2021/04/27 00:00:25;;;;;;;8.57;3.93;;;4.40;99.90;;;2.66;63.90;100991.13;3491430;40;104827;-39
2021/04/27 00:02:52;;;;;;;7.38;3.95;;;4.40;99.90;;;2.65;63.42;100979.53;3500109;40;102199;-39
2021/04/27 00:05:20;;;;;;;6.73;3.97;;;4.40;99.90;;;2.67;63.38;100977.53;3491306;40;104175;-39
2021/04/27 00:07:48;;;;;;;6.97;3.47;;;4.40;99.90;;;2.68;63.91;100981.91;3492093;40;103370;-40
2021/04/27 00:10:19;;;;;;;7.70;3.85;;;4.40;99.90;;;2.68;64.62;100978.34;3499070;40;104183;-39
2021/04/27 00:12:47;;;;;;;8.23;4.32;;;4.40;99.90;;;2.70;64.69;100973.66;3499832;40;103271;-40
2021/04/27 00:15:21;;;;;;;8.73;3.85;;;4.40;99.90;;;2.65;65.69;100968.75;3482970;40;104304;-39
2021/04/27 00:17:51;;;;;;;7.70;3.63;;;4.40;99.90;;;2.61;65.76;100975.44;3499293;40;104188;-40
2021/04/27 00:20:23;;;;;;;6.47;3.78;;;4.30;99.90;;;2.55;65.86;100966.16;3483744;40;102190;-39
2021/04/27 00:22:53;;;;;;;7.40;3.80;;;4.30;99.90;;;2.52;66.52;100961.06;3499544;40;102545;-40
2021/04/27 00:25:21;;;;;;;6.93;3.80;;;4.20;99.90;;;2.49;66.60;100958.66;3499309;40;103192;-39
2021/04/27 00:27:51;;;;;;;;;;;4.20;99.90;;;2.48;65.91;100953.44;3499875;40;102403;-39
2021/04/27 00:30:20;;;;;;;;;;;4.20;99.90;;;2.46;65.41;100955.47;3484552;40;103046;-40
2021/04/27 00:32:50;;;;;;;8.02;4.05;;;4.20;99.90;;;2.46;65.17;100956.28;3491412;40;102344;-40
2021/04/27 00:35:19;;;;;;;7.22;3.63;;;4.10;99.90;;;2.39;65.61;100948.00;3498978;40;102293;-40
2021/04/27 00:37:47;;;;;;;7.28;4.18;;;4.10;99.90;;;2.35;65.03;100943.91;3499312;40;102251;-39
2021/04/27 00:40:17;;;;;;;8.23;4.55;;;4.10;99.90;;;2.36;65.60;100952.84;3491241;40;104550;-40
2021/04/27 00:42:47;;;;;;;9.05;4.55;;;4.10;99.90;;;2.41;64.83;100939.75;3508536;40;104664;-40
2021/04/27 00:45:20;;;;;;;7.25;3.92;;;4.10;99.90;;;2.39;66.21;100941.75;3498996;40;103226;-40
2021/04/27 00:47:50;;;;;;;6.60;3.92;;;4.10;99.90;;;2.35;66.21;100945.78;3483538;40;102627;-40
2021/04/27 00:50:24;;;;;;;7.72;4.07;;;4.00;99.90;;;2.26;67.12;100942.16;3491158;40;104151;-40
2021/04/27 00:52:53;;;;;;;7.75;3.95;;;4.00;99.90;;;2.17;67.15;100953.88;3499524;40;102121;-40
2021/04/27 00:55:23;;;;;;;7.45;4.03;;;3.90;99.90;;;2.09;66.97;100958.16;3499168;40;103274;-39
2021/04/27 00:57:52;;;;;;;9.02;4.50;;;3.80;99.90;;;2.05;66.98;100958.63;3507418;40;102267;-40
2021/04/27 01:00:26;;;;;;;7.13;4.15;;;3.80;99.90;;;2.03;66.80;100952.56;3508328;40;103111;-39
2021/04/27 01:02:55;;;;;;;7.35;4.03;;;3.80;99.90;;;1.98;67.31;100955.69;3491104;40;102381;-40
2021/04/27 01:05:27;;;;;;;8.23;4.40;;;3.70;99.90;;;1.92;68.29;100964.38;3499418;40;102269;-40
2021/04/27 01:08:07;;;;;;;8.10;4.72;;;3.60;99.90;;;1.86;69.07;100955.06;3498936;40;102882;-40
2021/04/27 01:10:54;;;;;;;7.82;4.10;;;3.60;99.90;;;1.83;68.91;100960.75;3483682;40;102294;-40
2021/04/27 01:13:40;;;;;;;10.05;4.35;;;3.60;99.90;;;1.77;70.05;100945.22;3491967;40;102506;-39
2021/04/27 01:16:10;;;;;;;8.32;4.13;;;3.50;99.90;;;1.68;70.47;100953.19;3500425;40;102143;-39
2021/04/27 01:18:46;;;;;;;7.80;4.00;;;3.40;99.90;;;1.61;70.31;100943.19;3509599;40;103157;-40
2021/04/27 01:21:17;;;;;;;7.18;4.03;;;3.40;99.90;;;1.56;70.35;100940.94;3508688;40;103333;-40
2021/04/27 01:24:14;;;;;;;7.72;4.18;;;3.30;99.90;;;1.51;70.14;100935.19;3492045;40;102551;-40
2021/04/27 01:26:55;;;;;;;8.50;4.80;;;3.30;99.90;;;1.46;70.96;100937.44;3635056;22;104174;-39
2021/04/27 01:29:28;;;;;;;9.93;4.85;;;3.20;99.90;;;1.42;71.29;100937.75;3500731;39;103552;-42
2021/04/27 01:32:02;;;;;;;9.50;4.28;;;3.20;99.90;;;1.38;71.74;100931.00;3521017;39;102163;-42
2021/04/27 01:34:37;;;;;;;9.57;3.88;;;3.10;99.90;;;1.34;72.26;100931.47;3528534;39;102541;-41
2021/04/27 01:37:14;;;;;;;8.82;5.38;;;3.10;99.90;;;1.28;72.34;100919.44;3521294;39;102153;-42
2021/04/27 01:39:43;;;;;;;7.78;4.78;;;3.00;99.90;;;1.25;71.96;100917.91;3520830;39;102625;-42
2021/04/27 01:42:11;;;;;;;9.65;4.30;;;3.00;99.90;;;1.22;72.18;100912.81;3512418;39;104742;-41
2021/04/27 01:44:39;;;;;;;;;;;3.00;99.90;;;1.19;72.30;100909.56;3512727;39;102995;-41
2021/04/27 01:47:10;;;;;;;9.93;4.25;;;2.90;99.90;;;1.13;72.63;100913.72;3520558;39;102547;-41
2021/04/27 01:49:43;;;;;;;8.65;4.50;;;2.90;99.90;;;1.05;73.43;100911.78;3521244;39;103695;-43
2021/04/27 01:52:21;;;;;;;8.32;4.68;;;2.80;99.90;;;0.99;73.78;100904.31;3513353;39;103315;-43
2021/04/27 01:54:54;;;;;;;8.07;4.43;;;2.70;99.90;;;0.94;74.04;100904.75;3520834;39;103490;-41
2021/04/27 01:57:22;;;;;;;8.55;4.68;;;2.70;99.90;;;0.91;74.07;100902.34;3512145;39;102206;-42
2021/04/27 01:59:49;;;;;;;9.45;4.95;;;2.70;99.90;;;0.84;74.63;100899.41;3504421;39;103245;-42
2021/04/27 02:02:33;;;;;;;8.68;4.10;;;2.60;99.90;;;0.86;74.30;100901.94;3506745;39;104504;-41
2021/04/27 02:05:12;;;;;;;8.15;4.38;;;2.60;99.90;;;0.89;74.25;100898.09;3520938;39;102847;-41
2021/04/27 02:07:54;;;;;;;8.35;4.47;;;2.60;99.90;;;0.98;73.72;100892.69;3514194;39;103559;-41
2021/04/27 02:10:26;;;;;;;8.63;4.57;;;2.70;99.90;;;0.98;73.27;100902.63;3520099;39;102681;-41
2021/04/27 02:13:02;;;;;;;9.27;5.10;;;2.70;99.90;;;0.94;73.07;100895.84;3520369;39;104465;-41
2021/04/27 02:15:30;;;;;;;8.38;4.55;;;2.70;99.90;;;0.91;73.55;100898.78;3511857;39;102376;-41
2021/04/27 02:18:17;;;;;;;8.85;4.30;;;2.60;99.90;;;0.86;74.14;100908.16;3513098;39;103300;-41
2021/04/27 02:20:45;;;;;;;8.98;4.45;;;2.60;99.90;;;0.79;74.58;100899.00;3520350;39;102416;-41
2021/04/27 02:23:24;;;;;;;7.47;4.70;;;2.60;99.90;;;0.74;74.34;100903.97;3505969;39;102271;-41
2021/04/27 02:25:59;;;;;;;7.85;3.90;;;2.50;99.90;;;0.71;75.40;100902.41;3529617;39;103915;-41
2021/04/27 02:28:35;;;;;;;7.35;4.68;;;2.50;99.90;;;0.68;75.12;100894.63;3521056;39;104060;-41
2021/04/27 02:31:03;;;;;;;7.07;4.35;;;2.50;99.90;;;0.64;74.94;100898.63;3512539;39;102051;-41
2021/04/27 02:33:34;;;;;;;6.65;3.92;;;2.40;99.90;;;0.60;74.93;100899.03;3511781;39;103186;-41
2021/04/27 02:36:03;;;;;;;9.63;4.97;;;2.40;99.90;;;0.54;74.42;100898.63;3512060;39;104286;-41
2021/04/27 02:38:44;;;;;;;7.88;4.20;;;2.40;99.90;;;0.52;73.92;100892.56;3514558;39;102338;-41
2021/04/27 02:41:15;;;;;;;10.77;4.90;;;2.30;99.90;;;0.51;74.40;100890.88;3513013;39;103528;-41
2021/04/27 02:43:45;;;;;;;6.82;4.70;;;2.30;99.90;;;0.48;73.27;100879.56;3503978;39;103137;-41
2021/04/27 02:46:14;;;;;;;6.80;3.95;;;2.30;99.90;;;0.47;73.15;100884.09;3504055;39;102371;-42
2021/04/27 02:48:51;;;;;;;9.02;5.05;;;2.30;99.90;;;0.44;73.55;100895.13;3512548;39;102970;-41
2021/04/27 02:51:23;;;;;;;7.80;5.03;;;2.20;99.90;;;0.39;74.53;100883.97;3505229;39;102708;-41
2021/04/27 02:54:01;;;;;;;8.50;4.63;;;2.20;99.90;;;0.34;74.54;100881.72;3512782;39;105794;-41
2021/04/27 02:56:32;;;;;;;8.38;4.75;;;2.10;99.90;;;0.31;75.07;100878.47;3496518;39;102943;-41
2021/04/27 02:59:01;;;;;;;9.30;4.65;;;2.10;99.90;;;0.28;75.04;100876.94;3520182;39;103180;-41
2021/04/27 03:01:29;;;;;;;8.77;4.80;;;2.10;99.90;;;0.26;75.20;100878.91;3503896;39;102423;-41
2021/04/27 03:04:00;;;;;;;8.15;4.60;;;2.00;99.90;;;0.21;75.72;100882.03;3496717;39;104221;-41
2021/04/27 03:06:36;;;;;;;7.63;4.32;;;2.00;99.90;;;0.17;75.72;100877.09;3506391;39;102170;-41
2021/04/27 03:09:13;;;;;;;7.22;4.40;;;2.00;99.90;;;0.12;75.66;100873.00;3498107;39;104166;-42
2021/04/27 03:11:45;;;;;;;7.90;4.35;;;1.90;99.90;;;0.08;76.50;100876.97;3497265;39;102461;-41
2021/04/27 03:14:14;;;;;;;8.63;5.07;;;1.90;99.90;;;0.03;76.53;100867.63;3488546;39;103322;-41
2021/04/27 03:16:41;;;;;;;9.18;4.90;;;1.80;99.90;;;-0.02;76.75;100876.09;3495747;39;102531;-41
2021/04/27 03:19:09;;;;;;;9.32;4.85;;;1.80;99.90;;;-0.10;77.16;100875.97;3503882;39;102450;-41
2021/04/27 03:21:47;;;;;;;8.65;4.35;;;1.70;99.90;;;-0.14;77.23;100878.06;3499216;39;102849;-41
2021/04/27 03:24:15;;;;;;;8.57;4.73;;;1.70;99.90;;;-0.17;77.92;100881.91;3495925;39;102403;-41
2021/04/27 03:26:43;;;;;;;8.32;4.95;;;1.60;99.90;;;-0.17;77.63;100875.69;3529379;39;102247;-41
2021/04/27 03:29:20;;;;;;;9.60;5.10;;;1.60;99.90;;;-0.18;77.41;100873.97;3505818;39;102331;-41
2021/04/27 03:31:54;;;;;;;10.85;4.82;;;1.60;99.90;;;-0.25;78.07;100871.03;3504385;39;102494;-41
2021/04/27 03:34:22;;;;;;;8.13;4.85;;;1.60;99.90;;;-0.32;77.88;100867.19;3487423;39;104533;-41
2021/04/27 03:36:49;;;;;;;8.80;5.40;;;1.50;99.90;;;-0.33;77.87;100868.19;3504022;39;102410;-41
2021/04/27 03:39:17;;;;;;;8.17;4.60;;;1.50;99.90;;;-0.35;78.51;100862.13;3495415;39;104101;-42
2021/04/27 03:41:44;;;;;;;8.55;4.78;;;1.50;99.90;;;-0.44;78.16;100861.13;3520098;39;102416;-41
2021/04/27 03:44:12;;;;;;;9.38;5.25;;;1.40;99.90;;;-0.45;78.50;100871.00;3503724;39;102337;-41
2021/04/27 03:46:42;;;;;;;10.23;5.13;;;1.40;99.90;;;-0.45;78.25;100867.47;3496222;39;103298;-41
2021/04/27 03:49:09;;;;;;;8.60;4.72;;;1.30;99.90;;;-0.48;77.26;100857.88;3504148;39;103113;-41
2021/04/27 03:51:38;;;;;;;8.43;5.13;;;1.30;99.90;;;-0.49;78.20;100860.69;3488140;39;102432;-41
2021/04/27 03:54:09;;;;;;;11.20;5.30;;;1.30;99.90;;;-0.60;78.06;100854.50;3512229;39;102638;-41
2021/04/27 03:56:40;;;;;;;9.52;4.60;;;1.30;99.90;;;-0.60;77.60;100858.97;3504024;39;102645;-41
2021/04/27 03:59:09;;;;;;;7.68;4.00;;;1.20;99.90;;;-0.57;77.81;100863.22;3503877;39;102297;-41
2021/04/27 04:01:38;;;;;;;8.00;4.45;;;1.20;99.90;;;-0.57;77.79;100857.88;3495887;39;103419;-41
2021/04/27 04:04:06;;;;;;;11.27;4.75;;;1.20;99.90;;;-0.72;78.69;100839.50;3528805;39;106079;-41
2021/04/27 04:06:35;;;;;;;7.93;4.90;;;1.20;99.90;;;-0.58;78.72;100867.72;3511626;39;102481;-41
2021/04/27 04:09:08;;;;;;;9.73;4.65;;;1.30;99.90;;;-0.57;78.45;100868.59;3519546;39;102359;-40
2021/04/27 04:11:43;;;;;;;8.23;4.55;;;1.20;99.90;;;-0.60;78.03;100872.38;3520848;39;102376;-41
2021/04/27 04:14:11;;;;;;;7.78;4.45;;;1.20;99.90;;;-0.60;79.09;100875.06;3503228;39;103121;-41
2021/04/27 04:16:51;;;;;;;9.23;4.90;;;1.20;99.90;;;-0.68;79.40;100856.16;3505869;39;102537;-41
2021/04/27 04:19:19;;;;;;;10.25;5.22;;;1.20;99.90;;;-0.60;79.45;100875.94;3519777;39;102186;-41
2021/04/27 04:21:56;;;;;;;10.95;4.90;;;1.20;99.90;;;-0.61;79.63;100881.41;3505920;39;103769;-41
2021/04/27 04:24:23;;;;;;;;;;;1.20;99.90;;;-0.63;78.98;100872.66;3520468;39;103118;-41
2021/04/27 04:26:50;;;;;;;8.77;4.78;;;1.20;99.90;;;-0.64;79.63;100871.84;3519425;39;102488;-41
2021/04/27 04:29:30;;;;;;;10.40;5.15;;;1.20;99.90;;;-0.67;79.80;100880.13;3499117;39;102310;-41
2021/04/27 04:32:17;;;;;;;10.55;5.35;;;1.10;99.90;;;-0.68;80.18;100878.44;3507845;39;102477;-41
2021/04/27 04:34:54;;;;;;;9.60;5.07;;;1.10;99.90;;;-0.68;80.22;100888.31;3498042;39;103252;-42
2021/04/27 04:37:31;;;;;;;9.73;5.07;;;1.10;99.90;;;-0.63;80.31;100883.38;3505470;39;102611;-41
2021/04/27 04:40:19;;;;;;;8.25;5.00;;;1.20;99.90;;;-0.64;80.46;100889.72;3507506;39;102930;-41
2021/04/27 04:42:56;;;;;;;9.45;5.38;;;1.20;99.90;;;-0.63;80.94;100891.44;3521161;39;102348;-41
2021/04/27 04:45:44;;;;;;;12.82;5.15;;;1.10;99.90;;;-0.64;80.75;100884.38;3522422;39;102391;-41
2021/04/27 04:48:21;;;;;;;9.18;5.47;;;1.20;99.90;;;-0.57;81.36;100896.22;3514559;39;102487;-41
2021/04/27 04:51:04;;;;;;;9.43;5.32;;;1.20;99.90;;;-0.55;80.72;100883.53;3515035;39;103227;-41
2021/04/27 04:53:41;;;;;;;10.88;4.93;;;1.20;99.90;;;-0.47;80.71;100896.25;3521454;39;102340;-41
2021/04/27 04:56:08;;;;;;;10.70;5.18;;;1.30;99.90;;;-0.41;80.53;100901.06;3504322;39;103628;-41
2021/04/27 04:58:37;;;;;;;12.48;5.88;;;1.30;99.90;;;-0.37;81.08;100902.50;3504806;39;102454;-41
2021/04/27 05:01:06;;;;;;;8.43;5.07;;;1.30;99.90;;;-0.35;80.78;100903.19;3504966;39;102459;-41
2021/04/27 05:03:34;;;;;;;10.55;5.97;;;1.40;99.90;;;-0.34;80.99;100902.22;3530050;39;102639;-41
2021/04/27 05:06:15;;;;;;;12.43;5.55;;;1.40;99.90;;;-0.27;81.36;100910.53;3521519;39;102121;-41
2021/04/27 05:08:52;;;;;;;9.20;5.05;;;1.40;99.90;;;-0.22;80.58;100902.94;3507508;39;102473;-41
2021/04/27 05:11:30;;;;;;;14.37;6.10;;;1.50;99.90;;;-0.13;79.54;100897.72;3514549;39;103505;-41
2021/04/27 05:14:05;;;;;;;17.15;6.20;;;1.60;99.90;;;-0.02;79.07;100905.59;3505944;39;102472;-41
2021/04/27 05:16:32;;;;;;;13.73;5.87;;;1.60;99.90;;;0.07;78.63;100899.41;3504196;39;102479;-41
2021/04/27 05:19:03;;;;;;;9.88;5.50;;;1.80;99.90;;;0.14;79.17;100892.47;3512779;39;102553;-41
2021/04/27 05:21:30;;;;;;;13.50;5.97;;;1.80;99.90;;;0.30;79.48;100896.44;3520802;39;102216;-41
2021/04/27 05:23:58;;;;;;;11.23;5.30;;;1.90;99.90;;;0.39;79.28;100895.56;3512156;39;102274;-41
2021/04/27 05:26:25;;;;;;;12.27;6.25;;;2.00;99.90;;;0.50;77.91;100897.25;3504797;39;105702;-41
2021/04/27 05:28:52;;;;;;;10.32;5.07;;;2.10;99.90;;;0.61;77.70;100890.00;3520162;39;102534;-41
2021/04/27 05:31:20;;;;;;;8.47;5.57;;;2.20;99.90;;;0.74;76.71;100893.22;3520744;39;102221;-42
2021/04/27 05:33:47;;;;;;;15.07;5.47;;;2.30;99.90;;;0.89;76.98;100898.09;3529477;39;102237;-41
2021/04/27 05:36:13;;;;;;;9.52;4.97;;;2.40;99.90;;;1.07;75.30;100893.66;3512167;39;104112;-41
2021/04/27 05:38:40;;;;;;;12.57;5.20;;;2.60;99.90;;;1.36;72.87;100891.81;3504641;39;102496;-41
2021/04/27 05:41:07;;;;;;;8.95;5.05;;;2.80;99.90;;;1.54;71.38;100892.69;3512712;39;105370;-41
2021/04/27 05:43:34;;;;;;;11.30;5.38;;;3.00;99.90;;;1.85;70.14;100892.31;3504119;39;102322;-42
2021/04/27 05:46:01;;;;;;;8.23;4.65;;;3.30;99.90;;;2.17;69.83;100892.78;3504775;39;103208;-41
2021/04/27 05:48:29;;;;;;;9.32;4.90;;;3.60;99.90;;;2.42;68.42;100883.06;3512613;39;103389;-41
2021/04/27 05:50:56;;;;;;;10.75;5.00;;;3.80;99.90;;;2.69;68.88;100892.00;3504224;39;105704;-49
2021/04/27 05:53:23;;;;;;;10.27;4.70;;;4.00;99.90;;;2.94;68.43;100888.56;3512233;39;103270;-41
2021/04/27 05:55:50;;;;;;;9.07;4.80;;;4.20;99.90;;;3.19;66.92;100883.28;3519973;39;102208;-51
2021/04/27 05:58:17;;;;;;;9.27;4.43;;;4.50;99.90;;;3.46;65.15;100882.22;3504205;39;102455;-41
2021/04/27 06:00:44;;;;;;;7.13;4.03;;;4.70;99.90;;;3.72;64.96;100892.06;3520366;39;103091;-42
2021/04/27 06:03:30;;;;;;;6.97;3.80;;;5.00;99.90;;;4.00;63.41;100886.38;3521726;39;102708;-41
2021/04/27 06:05:57;;;;;;;11.65;4.50;;;5.20;99.90;;;4.22;61.85;100886.69;3512512;39;102376;-42
2021/04/27 06:08:24;;;;;;;7.83;4.37;;;5.50;99.90;;;4.43;58.97;100891.59;3504259;39;103212;-42
2021/04/27 06:10:51;;;;;;;7.03;3.78;;;5.70;99.90;;;4.63;59.18;100877.69;3511917;39;104761;-42
2021/04/27 06:13:18;;;;;;;6.78;4.03;;;5.90;99.90;;;4.87;58.60;100888.44;3512052;39;102361;-42
2021/04/27 06:15:46;;;;;;;8.52;4.25;;;6.10;99.90;;;5.07;58.68;100885.34;3529385;39;102349;-42
2021/04/27 06:18:13;;;;;;;8.37;3.70;;;6.30;99.90;;;5.23;57.67;100889.84;3512011;39;102510;-42
2021/04/27 06:20:41;;;;;;;9.70;3.50;;;6.50;99.90;;;5.45;56.58;100888.25;3512661;39;102256;-42
2021/04/27 06:23:08;;;;;;;6.82;3.75;;;6.60;99.90;;;5.67;57.79;100884.91;3503985;39;103531;-40
2021/04/27 06:25:35;;;;;;;8.80;3.75;;;6.80;99.90;;;5.92;56.78;100890.16;3511844;39;103986;-42
2021/04/27 06:28:03;;;;;;;7.03;3.57;;;7.00;99.90;;;6.13;55.68;100890.38;3520539;39;102302;-42
2021/04/27 06:30:30;;;;;;;7.88;3.72;;;7.20;99.90;;;6.31;53.70;100875.66;3520362;39;103185;-42
2021/04/27 06:32:57;;;;;;;8.68;4.35;;;7.40;99.90;;;6.53;53.08;100871.22;3520588;39;102532;-42
2021/04/27 06:35:26;;;;;;;8.85;3.70;;;7.60;99.90;;;6.71;53.37;100867.31;3519975;39;103029;-42
2021/04/27 06:37:54;;;;;;;7.22;3.00;;;7.80;99.90;;;6.97;49.13;100876.84;3520369;39;102640;-42
2021/04/27 06:40:22;;;;;;;6.57;2.97;;;8.10;99.90;;;7.16;51.10;100872.72;3529226;39;103062;-42
2021/04/27 06:42:49;;;;;;;7.50;3.33;;;8.30;99.90;;;7.39;51.16;100871.75;3529836;39;102383;-42
2021/04/27 06:45:18;;;;;;;6.72;3.00;;;8.50;99.90;;;7.60;50.96;100877.22;3504014;39;103968;-42
2021/04/27 06:47:46;;;;;;;6.30;2.92;;;8.70;99.90;;;7.75;49.63;100865.50;3512235;39;102462;-40
2021/04/27 06:50:18;;;;;;;6.97;3.33;;;8.80;99.90;;;7.94;48.35;100872.16;3512714;39;103034;-40
2021/04/27 06:52:46;;;;;;;6.78;2.83;;;9.00;99.00;;;8.12;49.80;100868.97;3520324;39;102504;-42
2021/04/27 06:55:13;;;;;;;;;;;9.20;99.90;;;8.29;44.68;100868.72;3504293;39;104174;-40
2021/04/27 06:57:42;;;;;;;5.47;2.47;;;9.30;94.70;;;8.46;44.97;100861.94;3529657;39;103815;-42
2021/04/27 07:00:11;;;;;;;4.00;2.00;;;9.60;95.00;;;8.61;43.35;100864.56;3520165;39;103188;-40
2021/04/27 07:02:38;;;;;;;5.22;1.83;;;9.70;91.60;;;8.79;43.22;100863.25;3529439;39;103295;-40
2021/04/27 07:05:07;;;;;;;4.05;1.70;;;9.90;91.10;;;8.96;42.31;100868.38;3519863;39;102431;-40
2021/04/27 07:07:34;;;;;;;3.55;1.70;;;10.00;86.00;;;9.13;40.31;100860.72;3519948;39;104094;-40
2021/04/27 07:10:03;;;;;;;6.97;1.85;;;10.20;81.10;;;9.24;40.46;100857.41;3503422;39;103653;-40
2021/04/27 07:12:30;;;;;;;2.63;1.52;;;10.30;79.80;;;9.41;40.08;100854.34;3520852;39;102400;-40
2021/04/27 07:14:57;;;;;;;4.00;1.77;;;10.50;79.80;;;9.51;39.32;100857.50;3503666;39;103089;-40
2021/04/27 07:17:25;;;;;;;7.05;1.90;;;10.60;77.10;;;9.60;40.10;100858.16;3512351;39;103981;-40
2021/04/27 07:19:52;;;;;;;3.25;1.75;;;10.70;77.00;;;9.72;41.38;100858.41;3520140;39;102416;-40
2021/04/27 07:22:19;;;;;;;3.40;1.77;;;10.80;77.40;;;9.85;39.88;100847.53;3504440;39;104783;-40
2021/04/27 07:24:46;;;;;;;4.35;1.80;;;10.90;75.10;;;9.99;40.36;100848.41;3511674;39;103237;-40
2021/04/27 07:27:13;;;;;;;4.60;1.70;;;11.10;76.10;;;10.13;37.57;100848.41;3661786;22;103443;-40
2021/04/27 07:29:40;;;;;;;4.68;1.70;;;11.20;69.40;;;10.18;37.28;100852.19;3534593;39;104034;-41
2021/04/27 07:32:10;;;;;;;3.60;1.60;;;11.30;69.20;;;10.10;35.87;100832.47;3512686;39;102464;-41
2021/04/27 07:34:37;;;;;;;5.65;1.60;;;11.30;63.70;;;10.35;37.73;100840.88;3511631;39;102878;-41
2021/04/27 07:37:05;;;;;;;5.90;1.90;;;11.40;68.20;;;10.48;37.64;100840.03;3518082;39;102907;-41
2021/04/27 07:39:33;;;;;;;3.30;1.60;;;11.50;67.50;;;10.54;35.60;100836.47;3502022;40;104815;-41
2021/04/27 07:42:01;;;;;;;7.22;1.58;;;11.60;64.90;;;10.69;36.10;100838.94;3509779;40;103820;-42
2021/04/27 07:44:28;;;;;;;6.22;1.73;;;11.70;64.70;;;10.60;36.22;100832.03;3501812;40;102313;-41
2021/04/27 07:46:55;;;;;;;3.00;1.60;;;11.70;63.20;;;10.63;35.42;100827.00;3518849;40;103197;-41
2021/04/27 07:49:23;;;;;;;3.47;1.73;;;11.70;61.80;;;10.71;35.85;100825.94;3501391;40;102417;-41
2021/04/27 07:51:50;;;;;;;6.32;1.77;;;11.80;62.30;;;10.83;34.02;100831.56;3509565;40;102504;-41
2021/04/27 07:54:17;;;;;;;5.17;1.80;;;11.90;59.50;;;10.96;35.31;100829.84;3509200;40;102448;-41
2021/04/27 07:56:44;;;;;;;4.07;1.50;;;12.00;61.00;;;11.00;34.94;100829.22;3493243;40;102252;-41
2021/04/27 07:59:13;;;;;;;3.10;1.50;;;12.10;60.00;;;11.07;33.53;100832.75;3485689;40;102338;-41
2021/04/27 08:01:40;;;;;;;2.75;1.35;;;12.20;58.00;;;11.16;33.50;100827.06;3509722;40;102419;-41
2021/04/27 08:04:08;;;;;;;3.28;1.52;;;12.20;57.60;;;11.16;35.75;100829.78;3501479;40;103263;-41
2021/04/27 08:06:36;;;;;;;3.90;1.38;;;12.20;60.40;;;11.30;36.05;100825.94;3518676;40;102319;-41
2021/04/27 08:09:07;;;;;;;3.38;1.33;;;12.30;61.50;;;11.29;34.81;100824.25;3501287;40;103179;-41
2021/04/27 08:11:39;;;;;;;2.75;1.42;;;12.40;58.90;;;11.42;33.96;100817.06;3502081;40;102447;-41
2021/04/27 08:14:09;;;;;;;2.80;1.52;;;12.50;57.30;;;11.49;34.21;100818.69;3518741;40;103174;-41
2021/04/27 08:16:37;;;;;;;2.10;1.40;;;12.60;57.70;;;11.49;33.30;100818.69;3519223;40;102401;-41
2021/04/27 08:19:06;;;;;;;3.95;1.58;;;12.60;56.40;;;11.63;33.84;100824.09;3508950;40;102334;-43
2021/04/27 08:21:34;;;;;;;3.00;1.48;;;12.70;56.00;;;11.79;33.06;100811.78;3509802;40;102181;-41
2021/04/27 08:24:03;;;;;;;6.60;2.22;;;12.80;56.20;;;11.86;32.71;100809.84;3518228;40;102376;-41
2021/04/27 08:26:50;;;;;;;3.45;1.60;;;12.90;55.60;;;11.86;33.61;100806.28;3518905;40;102795;-41
2021/04/27 08:29:17;;;;;;;1.95;1.48;;;12.90;55.70;;;12.05;33.96;100816.25;3509097;40;102208;-41
2021/04/27 08:31:56;;;;;;;3.00;1.67;;;13.10;57.90;;;12.14;30.15;100802.31;3503037;40;103054;-41
2021/04/27 08:34:24;;;;;;;3.10;1.58;;;13.10;51.50;;;12.35;34.98;100806.53;3501550;40;102322;-41
2021/04/27 08:36:51;;;;;;;2.57;1.67;;;13.20;58.90;;;12.47;31.39;100802.00;3509258;40;102492;-41
2021/04/27 08:39:18;;;;;;;5.63;2.10;;;13.40;53.30;;;12.46;31.66;100803.03;3501544;40;103352;-41
2021/04/27 08:41:46;;;;;;;2.70;1.58;;;13.50;53.50;;;12.50;30.53;100792.50;3493206;40;103389;-42
2021/04/27 08:44:13;;;;;;;4.53;1.70;;;13.50;51.80;;;12.61;33.37;100807.31;3509255;40;104030;-41
2021/04/27 08:46:42;;;;;;;4.13;1.40;;;13.50;55.60;;;12.76;32.03;100804.22;3493171;40;102239;-41
2021/04/27 08:49:10;;;;;;;3.85;1.92;;;13.70;54.00;;;12.80;31.17;100800.81;3509441;40;103112;-41
2021/04/27 08:51:37;;;;;;;2.77;1.60;;;13.80;52.70;;;12.83;30.08;100806.88;3485198;40;104852;-41
2021/04/27 08:54:24;;;;;;;3.38;1.75;;;13.80;50.90;;;12.93;31.94;100790.75;3510528;40;103206;-42
2021/04/27 08:56:52;;;;;;;4.97;1.90;;;13.90;53.80;;;12.90;31.60;100797.53;3501143;40;102470;-41
2021/04/27 08:59:19;;;;;;;;;;;13.90;53.80;;;12.88;32.22;100798.81;3519401;40;103062;-41
2021/04/27 09:01:46;;;;;;;3.92;1.42;;;13.90;53.30;;;12.99;30.09;100795.31;3518505;40;102414;-42
2021/04/27 09:04:43;;;;;;;3.97;1.60;;;14.00;50.90;;;13.14;30.31;100789.47;3500962;40;103792;-41
2021/04/27 09:07:16;;;;;;;2.95;1.52;;;14.10;50.00;;;13.13;28.79;100787.78;3511494;40;102323;-40
2021/04/27 09:09:56;;;;;;;2.95;1.60;;;14.10;48.70;;;13.24;31.50;100783.41;3500237;40;103243;-41
2021/04/27 09:12:34;;;;;;;5.40;1.85;;;14.20;52.10;;;13.36;30.62;100787.03;3518333;40;102284;-41
2021/04/27 09:15:01;;;;;;;3.33;2.08;;;14.30;52.30;;;13.51;33.14;100791.28;3501456;40;104031;-42
2021/04/27 09:17:31;;;;;;;3.72;1.85;;;14.40;54.70;;;13.63;32.04;100794.91;3508997;40;103425;-41
2021/04/27 09:19:59;;;;;;;3.85;1.92;;;14.50;53.70;;;13.71;30.02;100791.00;3509326;40;102332;-41
2021/04/27 09:22:31;;;;;;;3.17;1.67;;;14.60;50.50;;;13.64;27.52;100791.09;3509148;40;103799;-41
2021/04/27 09:25:06;;;;;;;4.20;1.98;;;14.60;46.50;;;13.61;27.66;100785.25;3508605;40;105650;-41
2021/04/27 09:27:40;;;;;;;4.32;1.63;;;14.60;46.80;;;13.34;28.66;100782.84;3518502;40;102730;-41
2021/04/27 09:30:22;;;;;;;4.35;1.80;;;14.50;47.80;;;13.59;30.61;100785.50;3493263;40;104247;-41
2021/04/27 09:35:45;;;;;;;3.13;1.63;;;14.70;47.30;;;13.96;30.48;100768.06;3519673;40;102142;-41
2021/04/27 09:38:27;;;;;;;5.53;2.00;;;14.90;50.90;;;13.91;28.45;100770.63;3519474;40;102314;-42
2021/04/27 09:40:59;;;;;;;3.88;2.00;;;15.00;46.30;;;13.80;26.81;100767.66;3519520;40;104122;-41
2021/04/27 09:43:29;;;;;;;4.60;1.90;;;14.90;45.70;;;13.84;25.84;100753.47;3510574;40;102461;-40
2021/04/27 09:46:03;;;;;;;3.92;1.98;;;14.80;43.60;;;13.59;26.96;100768.19;3519528;40;102386;-41
2021/04/27 09:48:35;;;;;;;3.45;2.03;;;14.80;45.00;;;13.57;27.79;100760.22;3519375;40;102434;-41
2021/04/27 09:51:27;;;;;;;4.35;1.67;;;14.70;45.70;;;13.72;29.31;100756.19;3512626;40;102407;-41
2021/04/27 09:54:06;;;;;;;5.25;1.70;;;14.80;47.40;;;13.63;27.33;100752.94;3510833;40;103300;-41
2021/04/27 09:56:48;;;;;;;3.45;1.58;;;14.80;45.30;;;13.41;26.31;100756.22;3519674;40;102394;-41
2021/04/27 09:59:28;;;;;;;3.13;1.90;;;14.70;43.20;;;13.40;29.92;100753.69;3519925;40;102426;-41
2021/04/27 10:02:01;;;;;;;3.42;1.80;;;14.60;48.30;;;13.44;30.68;100741.22;3519715;40;102214;-41
2021/04/27 10:04:29;;;;;;;5.82;2.25;;;14.60;48.50;;;13.36;29.26;100740.47;3502135;40;103879;-41
2021/04/27 10:07:02;;;;;;;4.05;1.80;;;14.60;47.50;;;13.62;28.05;100734.84;3502669;40;104718;-41
2021/04/27 10:09:32;;;;;;;3.55;1.70;;;14.70;46.20;;;13.73;27.66;100734.03;3518679;40;102291;-41
2021/04/27 10:12:01;;;;;;;4.10;1.88;;;14.70;45.90;;;13.81;27.60;100728.19;3519256;40;103293;-41
2021/04/27 10:14:29;;;;;;;4.15;2.00;;;14.80;45.80;;;13.66;27.78;100736.06;3518508;40;104195;-42
2021/04/27 10:16:57;;;;;;;3.73;1.97;;;14.90;45.80;;;13.55;27.37;100726.75;3494093;40;102612;-41
2021/04/27 10:19:25;;;;;;;3.92;1.85;;;14.80;45.00;;;13.66;28.80;100733.31;3510313;40;104995;-41
2021/04/27 10:21:52;;;;;;;3.50;2.03;;;14.80;46.80;;;13.61;28.92;100731.28;3502570;40;103053;-42
2021/04/27 10:24:24;;;;;;;4.03;1.92;;;14.80;46.80;;;13.36;25.07;100725.91;3502051;40;102487;-41
2021/04/27 10:26:52;;;;;;;5.40;2.10;;;14.60;41.50;;;13.41;26.85;100720.59;3519561;40;103215;-41
2021/04/27 10:29:28;;;;;;;2.78;1.58;;;14.60;44.40;;;13.64;28.55;100719.84;3510036;40;102376;-41
2021/04/27 10:32:18;;;;;;;3.28;1.90;;;14.70;46.40;;;13.80;27.51;100714.75;3501917;40;102297;-41
2021/04/27 10:35:05;;;;;;;3.08;1.90;;;14.80;43.90;;;14.01;30.30;100701.50;3519225;40;102427;-41